Time;durP1;ratioP1;P1;durP2;ratioP2;P2;SDS_P1;SDS_P2;PMS_P1;PMS_P2;Temp;Humidity;BMP_temperature;BMP_pressure;BME280_temperature;BME280_humidity;BME280_pressure;Samples;Min_cycle;Max_cycle;Signal;HPM_P1;HPM_P2
2022/05/25 00:00:25;;;;;;;1999.90;999.90;;;12.20;99.90;;;;;;4884545;29;20037;-81
2022/05/25 00:02:53;;;;;;;1999.90;999.90;;;12.10;99.90;;;;;;4882490;29;20049;-75
2022/05/25 00:05:19;;;;;;;1999.90;999.90;;;12.10;99.90;;;;;;4885643;29;20065;-81
2022/05/25 00:07:46;;;;;;;1999.90;999.90;;;12.10;99.90;;;;;;4882150;29;20549;-76
2022/05/25 00:10:12;;;;;;;1999.90;999.90;;;12.20;99.90;;;;;;4887718;29;20135;-82
2022/05/25 00:12:41;;;;;;;1999.90;999.90;;;12.20;99.90;;;;;;4888671;29;20054;-82
2022/05/25 00:15:09;;;;;;;1999.90;999.90;;;12.10;99.90;;;;;;4896733;29;20025;-76
2022/05/25 00:17:35;;;;;;;1999.90;999.90;;;12.10;99.90;;;;;;4893094;29;20400;-81
2022/05/25 00:20:02;;;;;;;1999.90;999.90;;;12.10;99.90;;;;;;4887710;29;20060;-82
2022/05/25 00:22:44;;;;;;;1999.90;999.90;;;12.10;99.90;;;;;;4880513;29;20033;-81
2022/05/25 00:25:17;;;;;;;1999.90;999.90;;;12.10;99.90;;;;;;4885198;29;20500;-82
2022/05/25 00:27:43;;;;;;;1999.90;999.90;;;12.10;99.90;;;;;;4877313;29;20498;-76
2022/05/25 00:30:11;;;;;;;1999.90;999.90;;;12.10;99.90;;;;;;4896796;29;20037;-81
2022/05/25 00:32:37;;;;;;;1999.90;999.90;;;12.10;99.90;;;;;;4886229;29;20025;-76
2022/05/25 00:35:04;;;;;;;1999.90;999.90;;;12.10;99.90;;;;;;4886666;29;20084;-75
2022/05/25 00:37:30;;;;;;;1999.90;999.90;;;12.10;99.90;;;;;;4890275;29;20038;-82
2022/05/25 00:39:56;;;;;;;1999.90;999.90;;;12.10;99.90;;;;;;4890709;29;20033;-76
2022/05/25 00:42:23;;;;;;;1999.90;999.90;;;12.00;99.90;;;;;;4883853;29;20468;-82
2022/05/25 00:44:49;;;;;;;1999.90;999.90;;;12.00;99.90;;;;;;4879114;29;20032;-82
2022/05/25 00:47:21;;;;;;;1999.90;999.90;;;12.00;99.90;;;;;;4895540;29;20052;-82
2022/05/25 00:49:47;;;;;;;1999.90;999.90;;;12.00;99.90;;;;;;4880490;29;20040;-75
2022/05/25 00:52:14;;;;;;;1999.90;999.90;;;11.90;99.90;;;;;;4885530;29;20037;-82
2022/05/25 00:54:49;;;;;;;1999.90;999.90;;;11.90;99.90;;;;;;4881383;29;20037;-75
2022/05/25 00:57:25;;;;;;;1999.90;999.90;;;11.90;99.90;;;;;;4889698;29;20029;-76
2022/05/25 01:00:16;;;;;;;1999.90;999.90;;;11.90;99.90;;;;;;4882285;29;20029;-81
2022/05/25 01:02:45;;;;;;;1999.90;999.90;;;11.80;99.90;;;;;;4881208;29;20025;-76
2022/05/25 01:05:13;;;;;;;1999.90;999.90;;;11.80;99.90;;;;;;4879778;29;20108;-82
2022/05/25 01:07:59;;;;;;;1999.90;999.90;;;11.80;99.90;;;;;;4885999;29;20563;-76
2022/05/25 01:10:45;;;;;;;1999.90;999.90;;;11.80;99.90;;;;;;4874350;29;20025;-82
2022/05/25 01:13:45;;;;;;;1999.90;999.90;;;11.90;99.90;;;;;;4891193;29;20033;-82
2022/05/25 01:16:19;;;;;;;1999.90;999.90;;;11.90;99.90;;;;;;4884314;29;20024;-82
2022/05/25 01:18:55;;;;;;;1999.90;999.90;;;11.80;99.90;;;;;;4880510;29;20029;-82
2022/05/25 01:21:25;;;;;;;1999.90;999.90;;;11.80;99.90;;;;;;4884407;29;20028;-76
2022/05/25 01:23:55;;;;;;;1999.90;999.90;;;11.80;99.90;;;;;;4880375;29;20112;-81
2022/05/25 01:26:40;;;;;;;1999.90;999.90;;;11.80;99.90;;;;;;4879597;29;20033;-82
2022/05/25 01:29:09;;;;;;;1999.90;999.90;;;11.80;99.90;;;;;;4887196;29;20036;-82
2022/05/25 01:31:45;;;;;;;1999.90;999.90;;;11.80;99.90;;;;;;4880207;29;20025;-82
2022/05/25 01:34:32;;;;;;;1999.90;999.90;;;11.80;99.90;;;;;;4878771;29;20063;-82
2022/05/25 01:37:16;;;;;;;1999.90;999.90;;;11.70;99.90;;;;;;4877666;29;20029;-76
2022/05/25 01:39:46;;;;;;;;;;;11.70;99.90;;;;;;4881074;29;20040;-82
2022/05/25 01:42:25;;;;;;;1999.90;999.90;;;11.70;99.90;;;;;;4889371;29;19908;-82
2022/05/25 01:45:05;;;;;;;1999.90;999.90;;;11.70;99.90;;;;;;4892334;29;20033;-82
2022/05/25 01:47:34;;;;;;;1999.90;999.90;;;11.70;99.90;;;;;;4889148;29;20027;-76
2022/05/25 01:50:13;;;;;;;1999.90;999.90;;;11.70;99.90;;;;;;4885363;29;20029;-81
2022/05/25 01:52:50;;;;;;;1999.90;999.90;;;11.70;99.90;;;;;;4880617;29;20385;-82
2022/05/25 01:55:33;;;;;;;1999.90;999.90;;;11.60;99.90;;;;;;4893936;29;20034;-81
2022/05/25 01:58:06;;;;;;;1999.90;999.90;;;11.60;99.90;;;;;;4888877;29;20040;-82
2022/05/25 02:00:38;;;;;;;1999.90;999.90;;;11.60;99.90;;;;;;4867382;29;20033;-82
2022/05/25 02:06:13;;;;;;;1999.90;999.90;;;11.60;99.90;;;;;;4882198;29;20044;-76
2022/05/25 02:08:58;;;;;;;1999.90;999.90;;;11.60;99.90;;;;;;4880181;29;20412;-82
2022/05/25 02:11:23;;;;;;;1999.90;999.90;;;11.60;99.90;;;;;;4888020;29;20025;-76
2022/05/25 02:14:03;;;;;;;1999.90;999.90;;;11.60;99.90;;;;;;4887156;29;20535;-82
2022/05/25 02:16:35;;;;;;;1999.90;999.90;;;11.50;99.90;;;;;;4887897;29;20065;-82
2022/05/25 02:19:23;;;;;;;1999.90;999.90;;;11.50;99.90;;;;;;4870752;29;20036;-75
2022/05/25 02:22:11;;;;;;;1999.90;999.90;;;11.50;99.90;;;;;;4878844;29;20037;-82
2022/05/25 02:24:51;;;;;;;1999.90;999.90;;;11.50;99.90;;;;;;4890890;29;20465;-76
2022/05/25 02:27:39;;;;;;;1999.90;999.90;;;11.60;99.90;;;;;;4872378;29;20040;-82
2022/05/25 02:30:13;;;;;;;1999.90;999.90;;;11.50;99.90;;;;;;4881739;29;20540;-81
2022/05/25 02:32:44;;;;;;;1999.90;999.90;;;11.50;99.90;;;;;;4881121;29;20039;-76
2022/05/25 02:35:12;;;;;;;1999.90;999.90;;;11.50;99.90;;;;;;4885495;29;20061;-82
2022/05/25 02:37:38;;;;;;;1999.90;999.90;;;11.40;99.90;;;;;;4883413;29;20035;-76
2022/05/25 02:40:08;;;;;;;1999.90;999.90;;;11.50;99.90;;;;;;4884388;29;20119;-82
2022/05/25 02:42:36;;;;;;;1999.90;999.90;;;11.50;99.90;;;;;;4883613;29;20532;-81
2022/05/25 02:45:02;;;;;;;1999.90;999.90;;;11.40;99.90;;;;;;4879441;29;20118;-82
2022/05/25 02:47:39;;;;;;;1999.90;999.90;;;11.40;99.90;;;;;;4885713;29;20441;-82
2022/05/25 02:50:06;;;;;;;1999.90;999.90;;;11.40;99.90;;;;;;4883205;29;20157;-76
2022/05/25 02:52:32;;;;;;;1999.90;999.90;;;11.40;99.90;;;;;;4894210;29;20527;-82
2022/05/25 02:54:58;;;;;;;1999.90;999.90;;;11.40;99.90;;;;;;4871965;29;20057;-82
2022/05/25 02:57:24;;;;;;;1999.90;999.90;;;11.40;99.90;;;;;;4888058;29;20449;-76
2022/05/25 02:59:52;;;;;;;1999.90;999.90;;;11.40;99.90;;;;;;4886840;29;20107;-81
2022/05/25 03:02:18;;;;;;;1999.90;999.90;;;11.50;99.90;;;;;;4884726;29;20029;-82
2022/05/25 03:04:44;;;;;;;1999.90;999.90;;;11.40;99.90;;;;;;4884642;29;20437;-75
2022/05/25 03:07:10;;;;;;;1999.90;999.90;;;11.30;99.90;;;;;;4886570;29;20075;-82
2022/05/25 03:09:37;;;;;;;1999.90;999.90;;;11.20;99.90;;;;;;4889422;29;20096;-76
2022/05/25 03:12:06;;;;;;;1999.90;999.90;;;11.20;99.90;;;;;;4889977;29;20045;-82
2022/05/25 03:14:32;;;;;;;1999.90;999.90;;;11.10;99.90;;;;;;4896776;29;20041;-82
2022/05/25 03:17:12;;;;;;;1999.90;999.90;;;11.10;99.90;;;;;;4899976;29;20031;-76
2022/05/25 03:19:39;;;;;;;1999.90;999.90;;;11.00;99.90;;;;;;4896348;29;20033;-82
2022/05/25 03:22:05;;;;;;;1999.90;999.90;;;11.00;99.90;;;;;;4897240;29;20033;-76
2022/05/25 03:24:32;;;;;;;1999.90;999.90;;;11.00;99.90;;;;;;4889438;29;20521;-82
2022/05/25 03:26:58;;;;;;;1999.90;999.90;;;11.00;99.90;;;;;;4885056;29;20370;-81
2022/05/25 03:29:25;;;;;;;1999.90;999.90;;;11.00;99.90;;;;;;4881841;29;20370;-76
2022/05/25 03:31:51;;;;;;;1999.90;999.90;;;11.00;99.90;;;;;;4890934;29;20059;-76
2022/05/25 03:34:18;;;;;;;1999.90;999.90;;;11.00;99.90;;;;;;4877915;29;20482;-81
2022/05/25 03:36:45;;;;;;;1999.90;999.90;;;11.00;99.90;;;;;;4875428;29;20035;-82
2022/05/25 03:39:10;;;;;;;1999.90;999.90;;;11.00;99.90;;;;;;4886052;29;20039;-82
2022/05/25 03:41:37;;;;;;;1999.90;999.90;;;11.00;99.90;;;;;;4879684;29;20032;-82
2022/05/25 03:44:03;;;;;;;1999.90;999.90;;;11.00;99.90;;;;;;4878895;29;20073;-82
2022/05/25 03:46:29;;;;;;;1999.90;999.90;;;11.00;99.90;;;;;;4883428;29;20033;-82
2022/05/25 03:48:55;;;;;;;1999.90;999.90;;;11.00;99.90;;;;;;4878582;29;20088;-76
2022/05/25 03:51:21;;;;;;;1999.90;999.90;;;11.00;99.90;;;;;;4879162;29;20073;-76
2022/05/25 03:53:49;;;;;;;1999.90;999.90;;;11.00;99.90;;;;;;4895484;29;20076;-82
2022/05/25 03:56:16;;;;;;;1999.90;999.90;;;11.00;99.90;;;;;;4881477;29;20025;-76
2022/05/25 03:58:43;;;;;;;1999.90;999.90;;;11.00;99.90;;;;;;4891134;29;20029;-82
2022/05/25 04:01:09;;;;;;;1999.90;999.90;;;11.00;99.90;;;;;;4877512;29;20060;-82
2022/05/25 04:03:35;;;;;;;1999.90;999.90;;;11.00;99.90;;;;;;4866079;29;20022;-82
2022/05/25 04:06:01;;;;;;;1999.90;999.90;;;11.00;99.90;;;;;;4867497;29;20046;-82
2022/05/25 04:08:27;;;;;;;1999.90;999.90;;;11.00;99.90;;;;;;4884750;29;20032;-76
2022/05/25 04:10:52;;;;;;;1999.90;999.90;;;11.10;99.90;;;;;;4890906;29;20040;-75
2022/05/25 04:13:20;;;;;;;1999.90;999.90;;;11.10;99.90;;;;;;4886650;29;20064;-81
2022/05/25 04:15:46;;;;;;;1999.90;999.90;;;11.10;99.90;;;;;;4889290;29;20022;-82
2022/05/25 04:18:11;;;;;;;1999.90;999.90;;;11.10;99.90;;;;;;4874323;29;20040;-81
2022/05/25 04:20:37;;;;;;;1999.90;999.90;;;11.20;99.90;;;;;;4889317;29;20036;-82
2022/05/25 04:23:07;;;;;;;1999.90;999.90;;;11.20;99.90;;;;;;4882051;29;20037;-76
2022/05/25 04:25:33;;;;;;;1999.90;999.90;;;11.20;99.90;;;;;;4881563;29;20041;-75
2022/05/25 04:27:59;;;;;;;1999.90;999.90;;;11.30;99.90;;;;;;4882405;29;20053;-82
2022/05/25 04:30:29;;;;;;;1999.90;999.90;;;11.30;99.90;;;;;;4886910;29;20028;-76
2022/05/25 04:32:55;;;;;;;1999.90;999.90;;;11.40;99.90;;;;;;4888977;29;20080;-82
2022/05/25 04:35:22;;;;;;;1999.90;999.90;;;11.40;99.90;;;;;;4887513;29;20535;-76
2022/05/25 04:37:48;;;;;;;1999.90;999.90;;;11.40;99.90;;;;;;4893638;29;20024;-76
2022/05/25 04:40:16;;;;;;;1999.90;999.90;;;11.40;99.90;;;;;;4894268;29;20029;-81
2022/05/25 04:42:43;;;;;;;1999.90;999.90;;;11.40;99.90;;;;;;4882852;29;20477;-76
2022/05/25 04:45:10;;;;;;;1999.90;999.90;;;11.40;99.90;;;;;;4886311;29;20409;-82
2022/05/25 04:47:37;;;;;;;1999.90;999.90;;;11.50;99.90;;;;;;4881851;29;20037;-76
2022/05/25 04:50:07;;;;;;;1999.90;999.90;;;11.40;99.90;;;;;;4876099;29;20389;-82
2022/05/25 04:52:34;;;;;;;1999.90;999.90;;;11.50;99.90;;;;;;4884455;29;20033;-82
2022/05/25 04:55:01;;;;;;;1999.90;999.90;;;11.50;99.90;;;;;;4888707;29;20503;-82
2022/05/25 04:57:27;;;;;;;1999.90;999.90;;;11.60;99.90;;;;;;4884921;29;20058;-83
2022/05/25 04:59:58;;;;;;;1999.90;999.90;;;11.70;99.90;;;;;;4880061;29;20056;-82
2022/05/25 05:02:25;;;;;;;1999.90;999.90;;;11.70;99.90;;;;;;4872627;29;20033;-76
2022/05/25 05:04:51;;;;;;;1999.90;999.90;;;11.80;99.90;;;;;;4881078;29;20033;-82
2022/05/25 05:07:17;;;;;;;1999.90;999.90;;;11.80;99.90;;;;;;4880831;29;20498;-82
2022/05/25 05:09:46;;;;;;;1999.90;999.90;;;12.00;99.90;;;;;;4882728;29;20021;-82
2022/05/25 05:12:14;;;;;;;1999.90;999.90;;;12.10;99.90;;;;;;4890571;29;20043;-82
2022/05/25 05:14:42;;;;;;;1999.90;999.90;;;12.20;99.90;;;;;;4882896;29;20495;-76
2022/05/25 05:17:08;;;;;;;1999.90;999.90;;;12.30;99.90;;;;;;4885585;29;20036;-76
2022/05/25 05:19:35;;;;;;;1999.90;999.90;;;12.40;99.90;;;;;;4886700;29;20064;-82
2022/05/25 05:22:01;;;;;;;1999.90;999.90;;;12.50;99.90;;;;;;4881273;29;20037;-82
2022/05/25 05:24:29;;;;;;;1999.90;999.90;;;12.60;99.90;;;;;;4880203;29;20029;-82
2022/05/25 05:26:55;;;;;;;1999.90;999.90;;;12.70;99.90;;;;;;4882150;29;20026;-76
2022/05/25 05:29:24;;;;;;;1999.90;999.90;;;12.80;99.90;;;;;;4882871;29;20028;-82
2022/05/25 05:31:51;;;;;;;1999.90;999.90;;;12.90;99.90;;;;;;4877034;29;20037;-81
2022/05/25 05:34:17;;;;;;;1999.90;999.90;;;13.00;99.90;;;;;;4888457;29;20501;-82
2022/05/25 05:36:45;;;;;;;1999.90;999.90;;;13.10;99.90;;;;;;4885055;29;20096;-81
2022/05/25 05:39:15;;;;;;;1999.90;999.90;;;13.20;99.90;;;;;;4882094;29;20037;-76
2022/05/25 05:41:46;;;;;;;1999.90;999.90;;;13.40;99.90;;;;;;4877737;29;20489;-76
2022/05/25 05:44:16;;;;;;;1999.90;999.90;;;13.50;99.90;;;;;;4879541;29;20082;-82
2022/05/25 05:46:43;;;;;;;1999.90;999.90;;;13.50;99.90;;;;;;4878466;29;20044;-82
2022/05/25 05:49:09;;;;;;;1999.90;999.90;;;13.60;99.90;;;;;;4879342;29;20028;-82
2022/05/25 05:51:37;;;;;;;1999.90;999.90;;;13.70;99.90;;;;;;4884644;29;20517;-82
2022/05/25 05:54:03;;;;;;;1999.90;999.90;;;13.80;99.90;;;;;;4879893;29;20115;-75
2022/05/25 05:56:32;;;;;;;1999.90;999.90;;;13.90;99.90;;;;;;4876791;29;20036;-80
2022/05/25 05:58:59;;;;;;;1999.90;999.90;;;14.00;99.90;;;;;;4882650;29;20021;-81
2022/05/25 06:01:24;;;;;;;1999.90;999.90;;;14.10;99.90;;;;;;4879733;29;20036;-82
2022/05/25 06:03:50;;;;;;;1999.90;999.90;;;14.10;99.90;;;;;;4885797;29;20404;-82
2022/05/25 06:06:16;;;;;;;1999.90;999.90;;;14.20;99.90;;;;;;4886012;29;20067;-76
2022/05/25 06:08:46;;;;;;;1999.90;999.90;;;14.30;99.90;;;;;;4887280;29;20040;-74
2022/05/25 06:11:20;;;;;;;1999.90;999.90;;;14.30;99.90;;;;;;4872168;29;20493;-81
2022/05/25 06:14:05;;;;;;;1999.90;999.90;;;14.40;99.90;;;;;;4880112;29;20032;-88
2022/05/25 06:19:59;;;;;;;1999.90;999.90;;;14.60;99.90;;;;;;4863126;29;20116;-90
2022/05/25 06:22:49;;;;;;;1999.90;999.90;;;14.60;99.90;;;;;;4902629;29;20029;-90
2022/05/25 06:25:33;;;;;;;1999.90;999.90;;;14.70;99.90;;;;;;4902846;29;20045;-91
2022/05/25 06:27:58;;;;;;;1999.90;999.90;;;14.80;99.90;;;;;;4905078;29;20045;-82
2022/05/25 06:30:24;;;;;;;1999.90;999.90;;;14.90;99.90;;;;;;4905020;29;20029;-85
2022/05/25 06:32:50;;;;;;;1999.90;999.90;;;14.90;99.90;;;;;;4906322;29;20009;-85
2022/05/25 06:35:16;;;;;;;1999.90;999.90;;;15.00;99.90;;;;;;4907494;29;20029;-85
2022/05/25 06:37:42;;;;;;;1999.90;999.90;;;15.10;99.90;;;;;;4964720;23;20028;-74
2022/05/25 06:40:08;;;;;;;1999.90;999.90;;;15.20;99.90;;;;;;4939696;29;20070;-74
2022/05/25 06:42:36;;;;;;;1999.90;999.90;;;15.20;99.90;;;;;;4939035;29;20043;-74
2022/05/25 06:45:01;;;;;;;1999.90;999.90;;;15.30;99.90;;;;;;4931618;29;20082;-74
2022/05/25 06:47:27;;;;;;;1999.90;999.90;;;15.40;99.90;;;;;;4934423;29;20059;-71
2022/05/25 06:49:54;;;;;;;1999.90;999.90;;;15.50;99.90;;;;;;4931263;29;20027;-74
2022/05/25 06:52:21;;;;;;;1999.90;999.90;;;15.60;99.90;;;;;;4934166;29;20473;-74
2022/05/25 06:54:52;;;;;;;1999.90;999.90;;;15.60;99.90;;;;;;4931252;29;20051;-74
2022/05/25 06:57:18;;;;;;;1999.90;999.90;;;15.70;99.90;;;;;;4928619;29;20082;-73
2022/05/25 06:59:44;;;;;;;1999.90;999.90;;;15.70;99.90;;;;;;4933238;29;20032;-71
2022/05/25 07:02:09;;;;;;;1999.90;999.90;;;15.90;99.90;;;;;;4932223;29;20032;-71
2022/05/25 07:04:35;;;;;;;1999.90;999.90;;;16.00;99.90;;;;;;4932699;29;20047;-74
2022/05/25 07:07:02;;;;;;;1999.90;999.90;;;16.20;99.90;;;;;;4926233;28;20032;-74
2022/05/25 07:09:28;;;;;;;1999.90;999.90;;;16.50;99.90;;;;;;4926639;29;20035;-74
2022/05/25 07:11:53;;;;;;;1999.90;999.90;;;16.80;99.90;;;;;;4925408;29;20050;-71
2022/05/25 07:14:19;;;;;;;1999.90;999.90;;;16.80;99.90;;;;;;4926405;29;20035;-74
2022/05/25 07:16:45;;;;;;;1999.90;999.90;;;16.90;99.90;;;;;;4928997;29;20023;-74
2022/05/25 07:19:10;;;;;;;1999.90;999.90;;;17.10;99.90;;;;;;4930868;29;20063;-74
2022/05/25 07:21:36;;;;;;;1999.90;999.90;;;17.30;99.90;;;;;;4931814;29;20040;-74
2022/05/25 07:24:02;;;;;;;1999.90;999.90;;;17.60;99.90;;;;;;4924850;29;20511;-74
2022/05/25 07:26:30;;;;;;;1999.90;999.90;;;17.90;99.90;;;;;;4929445;29;20114;-71
2022/05/25 07:28:56;;;;;;;1999.90;999.90;;;18.00;99.90;;;;;;4931699;29;20028;-71
2022/05/25 07:31:31;;;;;;;1999.90;999.90;;;18.10;99.90;;;;;;4933001;29;20039;-74
2022/05/25 07:34:08;;;;;;;1999.90;999.90;;;17.80;99.90;;;;;;4931517;29;20066;-76
2022/05/25 07:36:36;;;;;;;1999.90;999.90;;;17.60;99.90;;;;;;4930651;29;20063;-77
2022/05/25 07:39:05;;;;;;;1999.90;999.90;;;19.00;99.90;;;;;;4929251;29;20052;-73
2022/05/25 07:41:35;;;;;;;1999.90;999.90;;;18.40;99.90;;;;;;4932161;29;20066;-73
2022/05/25 07:44:01;;;;;;;1999.90;999.90;;;17.80;99.90;;;;;;4928131;29;20035;-73
2022/05/25 07:46:28;;;;;;;1999.90;999.90;;;18.40;99.90;;;;;;4928824;29;20036;-74
2022/05/25 07:48:54;;;;;;;1999.90;999.90;;;21.00;99.90;;;;;;4934260;29;20473;-72
2022/05/25 07:51:20;;;;;;;1999.90;999.90;;;23.50;97.90;;;;;;4930407;29;20027;-72
2022/05/25 07:53:56;;;;;;;1999.90;999.90;;;25.40;94.70;;;;;;4935218;29;20032;-72
2022/05/25 07:56:29;;;;;;;1999.90;999.90;;;26.60;92.40;;;;;;4925072;29;20020;-75
2022/05/25 07:58:55;;;;;;;1999.90;999.90;;;26.60;91.80;;;;;;4933482;29;20403;-75
2022/05/25 08:05:43;;;;;;;1999.90;999.90;;;26.10;91.20;;;;;;4933231;29;20034;-72
2022/05/25 08:06:55;;;;;;;1999.90;999.90;;;25.20;92.30;;;;;;4935189;29;22193;-71
2022/05/25 08:09:21;;;;;;;1999.90;999.90;;;22.70;94.50;;;;;;4930176;29;20036;-74
2022/05/25 08:11:47;;;;;;;1999.90;999.90;;;20.60;97.70;;;;;;4933103;29;20494;-74
2022/05/25 08:14:12;;;;;;;1999.90;999.90;;;20.30;99.80;;;;;;4930271;29;20040;-75
2022/05/25 08:16:38;;;;;;;1999.90;999.90;;;22.90;95.80;;;;;;4930911;29;20032;-71
2022/05/25 08:19:04;;;;;;;1999.90;999.90;;;25.00;93.20;;;;;;4931431;29;20039;-71
2022/05/25 08:21:30;;;;;;;1999.90;999.90;;;24.70;92.90;;;;;;4928037;29;20032;-72
2022/05/25 08:23:55;;;;;;;1999.90;999.90;;;26.10;91.10;;;;;;4932251;29;20115;-75
2022/05/25 08:26:21;;;;;;;1999.90;999.90;;;27.00;90.60;;;;;;4930582;29;20032;-75
2022/05/25 08:28:46;;;;;;;1999.90;999.90;;;26.30;90.90;;;;;;4934566;29;20075;-76
2022/05/25 08:31:12;;;;;;;1999.90;999.90;;;27.20;89.80;;;;;;4927863;29;20450;-72
2022/05/25 08:33:38;;;;;;;1999.90;999.90;;;28.70;89.20;;;;;;4928192;29;20031;-72
2022/05/25 08:36:03;;;;;;;1999.90;999.90;;;29.60;85.60;;;;;;4932728;29;20033;-73
2022/05/25 08:38:29;;;;;;;1999.90;999.90;;;28.30;86.40;;;;;;4934308;29;20040;-76
2022/05/25 08:40:56;;;;;;;1999.90;999.90;;;28.60;85.10;;;;;;4934916;29;20034;-75
2022/05/25 08:43:39;;;;;;;1999.90;999.90;;;26.50;89.10;;;;;;4931912;29;20102;-72
2022/05/25 08:46:06;;;;;;;1999.90;999.90;;;25.60;86.60;;;;;;4937687;29;20067;-71
2022/05/25 08:48:34;;;;;;;1999.90;999.90;;;23.50;91.10;;;;;;4931481;29;20114;-71
2022/05/25 08:51:21;;;;;;;1999.90;999.90;;;21.60;93.10;;;;;;4930079;29;20126;-75
2022/05/25 08:53:48;;;;;;;1999.90;999.90;;;21.50;92.90;;;;;;4934515;29;20035;-76
2022/05/25 08:56:43;;;;;;;1999.90;999.90;;;25.00;90.30;;;;;;4934881;29;20095;-71
2022/05/25 08:59:28;;;;;;;1999.90;999.90;;;27.90;85.70;;;;;;4926713;29;20047;-72
2022/05/25 09:02:33;;;;;;;1999.90;999.90;;;28.90;85.70;;;;;;4933868;29;20394;-72
2022/05/25 09:05:02;;;;;;;1999.90;999.90;;;29.70;82.60;;;;;;4930500;29;20032;-76
2022/05/25 09:07:52;;;;;;;1999.90;999.90;;;29.60;82.40;;;;;;4930973;29;20451;-76
2022/05/25 09:10:19;;;;;;;1999.90;999.90;;;28.70;82.20;;;;;;4928797;29;20032;-72
2022/05/25 09:13:00;;;;;;;1999.90;999.90;;;29.50;81.80;;;;;;4931176;29;20043;-72
2022/05/25 09:15:30;;;;;;;1999.90;999.90;;;29.50;81.70;;;;;;4933135;29;20031;-76
2022/05/25 09:18:11;;;;;;;1999.90;999.90;;;28.50;80.70;;;;;;4933734;29;20020;-75
2022/05/25 09:20:44;;;;;;;1999.90;999.90;;;25.20;85.40;;;;;;4929665;29;20037;-76
2022/05/25 09:23:11;;;;;;;1999.90;999.90;;;26.00;87.00;;;;;;4933996;29;20103;-76
2022/05/25 09:25:37;;;;;;;1999.90;999.90;;;28.30;83.30;;;;;;4931783;29;20487;-71
2022/05/25 09:28:14;;;;;;;1999.90;999.90;;;28.80;81.40;;;;;;4932626;29;20106;-75
2022/05/25 09:30:42;;;;;;;1999.90;999.90;;;26.40;80.90;;;;;;4930231;29;20040;-74
2022/05/25 09:33:26;;;;;;;1999.90;999.90;;;25.70;85.70;;;;;;4928557;29;20035;-76
2022/05/25 09:35:59;;;;;;;1999.90;999.90;;;27.60;82.80;;;;;;4930096;29;20068;-71
2022/05/25 09:38:31;;;;;;;1999.90;999.90;;;27.50;81.70;;;;;;4934584;28;20044;-71
2022/05/25 09:41:04;;;;;;;1999.90;999.90;;;27.50;80.80;;;;;;4934533;29;20040;-76
2022/05/25 09:43:31;;;;;;;1999.90;999.90;;;28.50;80.10;;;;;;4932910;29;20042;-72
2022/05/25 09:46:08;;;;;;;1999.90;999.90;;;28.50;79.60;;;;;;4929834;29;20043;-77
2022/05/25 09:48:54;;;;;;;1999.90;999.90;;;28.00;78.60;;;;;;4934717;29;20505;-72
2022/05/25 09:51:35;;;;;;;1999.90;999.90;;;28.00;78.50;;;;;;4930836;29;20027;-71
2022/05/25 09:54:20;;;;;;;1999.90;999.90;;;28.50;78.20;;;;;;4934765;29;20499;-72
2022/05/25 09:56:53;;;;;;;1999.90;999.90;;;28.20;75.90;;;;;;4925335;29;20526;-76
2022/05/25 09:59:32;;;;;;;1999.90;999.90;;;27.40;78.30;;;;;;4930339;29;20043;-76
2022/05/25 10:01:58;;;;;;;1999.90;999.90;;;27.70;77.90;;;;;;4930767;29;20028;-72
2022/05/25 10:04:51;;;;;;;1999.90;999.90;;;27.80;77.70;;;;;;4933208;29;20042;-72
2022/05/25 10:07:36;;;;;;;1999.90;999.90;;;27.20;79.50;;;;;;4931509;29;20047;-71
2022/05/25 10:10:07;;;;;;;1999.90;999.90;;;27.20;79.50;;;;;;4934046;29;20082;-71
2022/05/25 10:12:41;;;;;;;1999.90;999.90;;;27.10;78.50;;;;;;4928734;29;20403;-76
2022/05/25 10:15:11;;;;;;;1999.90;999.90;;;28.20;78.10;;;;;;4928470;29;20023;-72
2022/05/25 10:17:48;;;;;;;1999.90;999.90;;;28.80;76.80;;;;;;4928316;29;20032;-71
2022/05/25 10:20:40;;;;;;;1999.90;999.90;;;28.60;77.00;;;;;;4931849;29;20032;-75
2022/05/25 10:23:13;;;;;;;1999.90;999.90;;;28.40;75.60;;;;;;4931215;29;20118;-76
2022/05/25 10:25:45;;;;;;;1999.90;999.90;;;28.10;77.20;;;;;;4933215;29;20491;-75
2022/05/25 10:28:29;;;;;;;1999.90;999.90;;;27.90;75.40;;;;;;4931529;29;20451;-71
2022/05/25 10:37:09;;;;;;;1999.90;999.90;;;26.00;78.60;;;;;;4933059;29;20792;-74
2022/05/25 10:39:39;;;;;;;1999.90;999.90;;;25.80;78.80;;;;;;4932377;29;20071;-71
2022/05/25 10:42:04;;;;;;;1999.90;999.90;;;26.20;80.90;;;;;;4934420;29;20036;-70
2022/05/25 10:44:46;;;;;;;1999.90;999.90;;;25.60;81.10;;;;;;4932501;29;20086;-76
2022/05/25 10:47:30;;;;;;;1999.90;999.90;;;26.40;79.80;;;;;;4931854;29;20108;-76
2022/05/25 10:49:55;;;;;;;1999.90;999.90;;;27.90;79.40;;;;;;4925032;29;20020;-71
2022/05/25 10:52:37;;;;;;;1999.90;999.90;;;26.50;79.30;;;;;;4932802;29;20059;-76
2022/05/25 10:55:05;;;;;;;1999.90;999.90;;;26.50;80.80;;;;;;4929451;29;20034;-72
2022/05/25 10:57:44;;;;;;;1999.90;999.90;;;26.90;80.80;;;;;;4930397;29;20063;-76
2022/05/25 11:00:39;;;;;;;1999.90;999.90;;;25.80;82.40;;;;;;4925872;29;20043;-71
2022/05/25 11:03:14;;;;;;;1999.90;999.90;;;25.50;84.40;;;;;;4911682;29;20559;-76
2022/05/25 11:05:57;;;;;;;1999.90;999.90;;;26.70;82.80;;;;;;4933442;29;20502;-76
2022/05/25 11:08:48;;;;;;;1999.90;999.90;;;27.50;80.60;;;;;;4927571;29;20126;-71
2022/05/25 11:11:19;;;;;;;1999.90;999.90;;;26.50;81.00;;;;;;4929229;29;20119;-75
2022/05/25 11:14:22;;;;;;;1999.90;999.90;;;25.40;82.30;;;;;;4928085;29;20039;-74
2022/05/25 11:16:49;;;;;;;1999.90;999.90;;;25.60;82.50;;;;;;4927228;29;20027;-71
2022/05/25 11:19:22;;;;;;;1999.90;999.90;;;27.00;79.60;;;;;;4926712;29;20030;-76
2022/05/25 11:22:11;;;;;;;1999.90;999.90;;;27.10;78.00;;;;;;4923501;29;20075;-71
2022/05/25 11:24:36;;;;;;;1999.90;999.90;;;26.30;79.20;;;;;;4900246;29;20086;-76
2022/05/25 11:27:39;;;;;;;1999.90;999.90;;;26.80;80.20;;;;;;4932159;29;20051;-75
2022/05/25 11:30:29;;;;;;;1999.90;999.90;;;26.30;79.60;;;;;;4931863;29;20607;-75
2022/05/25 11:33:21;;;;;;;1999.90;999.90;;;27.10;79.00;;;;;;4926038;29;20090;-72
2022/05/25 11:36:12;;;;;;;1999.90;999.90;;;27.00;77.40;;;;;;4921230;29;20118;-71
2022/05/25 11:38:47;;;;;;;1999.90;999.90;;;25.60;79.40;;;;;;4930272;29;20048;-76
2022/05/25 11:41:53;;;;;;;1999.90;999.90;;;25.90;78.60;;;;;;4931699;29;20051;-75
2022/05/25 11:44:37;;;;;;;1999.90;999.90;;;25.20;78.20;;;;;;4900490;29;20159;-76
2022/05/25 11:47:21;;;;;;;1999.90;999.90;;;25.40;79.50;;;;;;4926264;29;20483;-76
2022/05/25 11:50:03;;;;;;;1999.90;999.90;;;25.80;78.90;;;;;;4930244;29;20415;-76
2022/05/25 11:52:40;;;;;;;1999.90;999.90;;;26.40;77.30;;;;;;4929262;29;20031;-72
2022/05/25 11:55:24;;;;;;;1999.90;999.90;;;26.70;78.50;;;;;;4931676;29;20039;-76
2022/05/25 11:58:28;;;;;;;1999.90;999.90;;;26.00;79.20;;;;;;4937333;28;20487;-76
2022/05/25 12:01:06;;;;;;;1999.90;999.90;;;25.90;79.70;;;;;;4909928;29;20036;-73
2022/05/25 12:03:47;;;;;;;1999.90;999.90;;;26.10;78.10;;;;;;4928600;29;20032;-76
2022/05/25 12:06:15;;;;;;;1999.90;999.90;;;26.40;79.70;;;;;;4927819;29;20039;-76
2022/05/25 12:09:07;;;;;;;1999.90;999.90;;;26.80;80.50;;;;;;4931455;29;20023;-76
2022/05/25 12:12:07;;;;;;;1999.90;999.90;;;26.30;79.40;;;;;;4922521;29;20042;-72
2022/05/25 12:14:52;;;;;;;1999.90;999.90;;;26.00;76.30;;;;;;4924222;29;20522;-72
2022/05/25 12:17:29;;;;;;;1999.90;999.90;;;25.80;77.80;;;;;;4926119;29;20399;-72
2022/05/25 12:19:58;;;;;;;1999.90;999.90;;;25.70;78.70;;;;;;4931048;29;20035;-74
2022/05/25 12:22:31;;;;;;;1999.90;999.90;;;25.50;77.50;;;;;;4929254;29;20155;-71
2022/05/25 12:25:03;;;;;;;1999.90;999.90;;;25.20;80.20;;;;;;4931358;29;20697;-71
2022/05/25 12:27:37;;;;;;;1999.90;999.90;;;25.80;80.00;;;;;;4928392;29;20023;-76
2022/05/25 12:30:07;;;;;;;1999.90;999.90;;;26.50;78.80;;;;;;4928210;29;20407;-77
2022/05/25 12:32:35;;;;;;;1999.90;999.90;;;25.90;79.00;;;;;;4930446;29;20106;-71
2022/05/25 12:35:01;;;;;;;1999.90;999.90;;;24.60;80.70;;;;;;4929604;29;20502;-71
2022/05/25 12:37:34;;;;;;;1999.90;999.90;;;24.00;81.60;;;;;;4933028;29;20504;-70